Time;durP1;ratioP1;P1;durP2;ratioP2;P2;SDS_P1;SDS_P2;PMS_P1;PMS_P2;Temp;Humidity;BMP_temperature;BMP_pressure;BME280_temperature;BME280_humidity;BME280_pressure;Samples;Min_cycle;Max_cycle;Signal;HPM_P1;HPM_P2
2023/05/26 03:01:11;;;;;;;28.23;4.82;;;7.50;99.90;;;;;;5628668;23;20051;-77
2023/05/26 03:03:37;;;;;;;21.83;4.72;;;7.50;99.90;;;;;;4995039;28;20525;-79
2023/05/26 03:06:03;;;;;;;21.67;5.25;;;7.40;99.90;;;;;;4993535;28;20158;-79
2023/05/26 03:08:29;;;;;;;28.90;6.00;;;7.30;99.90;;;;;;4977560;28;20164;-78
2023/05/26 03:10:55;;;;;;;26.83;5.57;;;7.30;99.90;;;;;;4993656;28;20471;-77
2023/05/26 03:13:20;;;;;;;22.45;4.75;;;7.30;99.90;;;;;;4993594;28;20078;-77
2023/05/26 03:15:47;;;;;;;24.02;4.85;;;7.30;99.90;;;;;;4977744;28;20117;-78
2023/05/26 03:18:13;;;;;;;19.45;4.70;;;7.20;99.90;;;;;;4993530;28;20047;-79
2023/05/26 03:20:39;;;;;;;31.45;5.63;;;7.30;99.90;;;;;;4993290;28;20042;-79
2023/05/26 03:23:05;;;;;;;25.90;6.93;;;7.30;99.90;;;;;;4995212;28;20038;-80
2023/05/26 03:25:31;;;;;;;31.92;5.85;;;7.30;99.90;;;;;;4995026;28;20069;-80
2023/05/26 03:27:57;;;;;;;22.33;5.28;;;7.30;99.90;;;;;;4995766;28;20034;-77
2023/05/26 03:30:23;;;;;;;22.42;5.18;;;7.20;99.90;;;;;;4996736;28;20450;-80
2023/05/26 03:32:48;;;;;;;28.38;5.55;;;7.20;99.90;;;;;;4998568;28;20037;-79
2023/05/26 03:35:15;;;;;;;31.08;5.65;;;7.10;99.90;;;;;;4997228;28;20141;-79
2023/05/26 03:37:40;;;;;;;27.30;6.25;;;7.10;99.90;;;;;;4996731;28;20030;-78
2023/05/26 03:40:06;;;;;;;27.75;5.32;;;7.20;99.90;;;;;;4997447;28;20042;-78
2023/05/26 03:42:32;;;;;;;21.98;5.18;;;7.10;99.90;;;;;;4996548;28;20452;-80
2023/05/26 03:44:58;;;;;;;27.85;5.10;;;7.10;99.90;;;;;;4996862;28;20133;-78
2023/05/26 03:47:24;;;;;;;25.98;5.68;;;7.10;99.90;;;;;;4996689;28;20130;-80
2023/05/26 03:49:50;;;;;;;28.35;5.88;;;7.10;99.90;;;;;;4980730;28;20121;-79
2023/05/26 03:52:16;;;;;;;28.15;6.00;;;7.10;99.90;;;;;;4996623;28;20508;-78
2023/05/26 03:54:41;;;;;;;21.65;4.70;;;7.10;99.90;;;;;;4996604;28;20035;-79
2023/05/26 03:57:07;;;;;;;23.17;5.40;;;7.00;99.90;;;;;;4980276;28;20045;-79
2023/05/26 03:59:33;;;;;;;25.85;6.53;;;7.00;99.90;;;;;;4997212;28;20050;-79
2023/05/26 04:01:59;;;;;;;27.92;6.38;;;7.00;99.90;;;;;;4996499;28;20042;-78
2023/05/26 04:04:24;;;;;;;23.73;5.78;;;7.00;99.90;;;;;;4996228;28;20104;-77
2023/05/26 04:06:50;;;;;;;28.63;6.00;;;7.00;99.90;;;;;;4996643;28;20038;-80
2023/05/26 04:09:16;;;;;;;25.63;5.97;;;7.00;99.90;;;;;;4998057;28;20117;-79
2023/05/26 04:11:41;;;;;;;29.65;4.90;;;7.00;99.90;;;;;;4980290;28;20459;-77
2023/05/26 04:14:07;;;;;;;23.60;5.78;;;7.00;99.90;;;;;;4980478;28;20049;-76
2023/05/26 04:16:33;;;;;;;30.52;5.50;;;7.00;99.90;;;;;;4996673;28;20375;-78
2023/05/26 04:18:59;;;;;;;23.25;4.93;;;7.10;99.90;;;;;;4996678;28;20042;-79
2023/05/26 04:21:25;;;;;;;25.55;4.63;;;7.10;99.90;;;;;;4997713;28;20035;-78
2023/05/26 04:23:52;;;;;;;28.95;6.70;;;7.10;99.90;;;;;;4996142;28;20038;-77
2023/05/26 04:26:18;;;;;;;29.35;5.10;;;7.10;99.90;;;;;;4995932;28;20365;-78
2023/05/26 04:28:44;;;;;;;20.45;5.43;;;7.10;99.90;;;;;;4995961;28;20055;-76
2023/05/26 04:31:10;;;;;;;26.05;4.97;;;7.10;99.90;;;;;;4996266;28;20409;-77
2023/05/26 04:33:39;;;;;;;28.92;4.80;;;7.20;99.90;;;;;;4997480;28;20042;-78
2023/05/26 04:36:09;;;;;;;23.13;4.88;;;7.20;99.90;;;;;;4996483;28;20130;-77
2023/05/26 04:38:36;;;;;;;24.77;5.20;;;7.20;99.90;;;;;;4979939;28;20077;-76
2023/05/26 04:41:06;;;;;;;26.67;4.78;;;7.20;99.90;;;;;;4997395;28;20077;-78
2023/05/26 04:43:35;;;;;;;21.67;5.20;;;7.30;99.90;;;;;;4997233;28;20073;-77
2023/05/26 04:46:02;;;;;;;29.08;5.53;;;7.30;99.90;;;;;;4995917;28;20074;-79
2023/05/26 04:48:28;;;;;;;44.42;7.43;;;7.30;99.90;;;;;;4996157;28;20093;-80
2023/05/26 04:50:54;;;;;;;30.55;5.03;;;7.30;99.90;;;;;;4996162;28;20046;-78
2023/05/26 04:53:20;;;;;;;33.67;4.47;;;7.30;99.90;;;;;;4995238;28;20042;-78
2023/05/26 04:55:47;;;;;;;21.52;5.10;;;7.40;99.90;;;;;;4997040;28;20045;-79
2023/05/26 04:58:13;;;;;;;30.98;6.28;;;7.40;99.90;;;;;;4996527;28;20038;-80
2023/05/26 05:00:38;;;;;;;30.92;5.38;;;7.50;99.90;;;;;;4996309;28;20046;-77
2023/05/26 05:03:04;;;;;;;26.70;4.90;;;7.50;99.90;;;;;;4997145;28;20045;-80
2023/05/26 05:05:30;;;;;;;26.98;4.93;;;7.50;99.90;;;;;;4995763;28;20064;-77
2023/05/26 05:07:56;;;;;;;34.53;5.82;;;7.50;99.90;;;;;;4995721;28;20133;-78
2023/05/26 05:10:22;;;;;;;31.00;5.53;;;7.60;99.90;;;;;;4994807;28;20400;-79
2023/05/26 05:12:49;;;;;;;28.35;5.18;;;7.70;99.90;;;;;;4995359;28;20096;-80
2023/05/26 05:15:15;;;;;;;24.38;4.95;;;7.70;99.90;;;;;;4995279;28;20042;-80
2023/05/26 05:17:40;;;;;;;25.27;5.45;;;7.70;99.90;;;;;;4996254;28;20390;-78
2023/05/26 05:20:07;;;;;;;27.40;5.25;;;7.80;99.90;;;;;;4996228;28;20046;-78
2023/05/26 05:22:33;;;;;;;30.20;5.35;;;7.80;99.90;;;;;;4996547;28;20034;-78
2023/05/26 05:24:59;;;;;;;31.90;5.40;;;7.90;99.90;;;;;;4996627;28;20034;-81
2023/05/26 05:27:25;;;;;;;29.88;6.65;;;7.90;99.90;;;;;;4996213;28;20133;-79
2023/05/26 05:29:50;;;;;;;31.35;5.72;;;8.00;99.90;;;;;;4996325;28;20367;-78
2023/05/26 05:32:17;;;;;;;31.33;6.70;;;8.00;99.90;;;;;;4995959;28;20042;-79
2023/05/26 05:34:43;;;;;;;25.40;5.50;;;8.10;99.90;;;;;;4996268;28;20030;-78
2023/05/26 05:37:09;;;;;;;29.40;4.85;;;8.20;99.90;;;;;;4985477;28;20039;-78
2023/05/26 05:39:34;;;;;;;28.90;5.18;;;8.20;99.90;;;;;;4975089;28;20074;-78
2023/05/26 05:42:00;;;;;;;30.90;6.03;;;8.30;99.90;;;;;;4976853;28;20093;-78
2023/05/26 05:44:25;;;;;;;26.73;5.50;;;8.30;99.90;;;;;;4975340;28;20501;-77
2023/05/26 05:46:51;;;;;;;31.60;5.78;;;8.40;99.90;;;;;;4976108;28;20121;-76
2023/05/26 05:49:17;;;;;;;25.90;4.80;;;8.50;99.90;;;;;;4975104;28;20074;-79
2023/05/26 05:51:43;;;;;;;34.33;6.13;;;8.60;99.90;;;;;;4974220;28;20042;-79
2023/05/26 05:54:08;;;;;;;29.83;4.88;;;8.60;99.90;;;;;;4974809;28;20379;-78
2023/05/26 05:56:34;;;;;;;31.85;5.80;;;8.70;99.90;;;;;;4975705;28;20093;-78
2023/05/26 05:59:00;;;;;;;27.15;5.85;;;8.70;99.90;;;;;;4974799;28;20069;-78
2023/05/26 06:01:25;;;;;;;25.45;5.07;;;8.80;99.90;;;;;;4974188;28;20043;-78
2023/05/26 06:04:02;;;;;;;;;;;;;;;;;;;;;
2023/05/26 06:06:28;;;;;;;26.92;5.05;;;8.90;99.90;;;;;;4974016;28;20109;-75
2023/05/26 06:08:54;;;;;;;28.33;5.82;;;9.00;99.90;;;;;;4957890;28;20086;-75
2023/05/26 06:11:21;;;;;;;25.88;5.13;;;9.10;99.90;;;;;;4974124;28;20035;-77
2023/05/26 06:13:46;;;;;;;29.83;5.10;;;9.20;99.90;;;;;;4974306;28;20042;-76
2023/05/26 06:16:12;;;;;;;25.13;4.50;;;9.20;99.90;;;;;;4974525;28;20042;-78
2023/05/26 06:18:38;;;;;;;24.17;4.65;;;9.30;99.90;;;;;;4974391;28;20122;-75
2023/05/26 06:21:04;;;;;;;26.50;4.68;;;9.40;99.90;;;;;;4958395;28;20082;-76
2023/05/26 06:23:30;;;;;;;39.30;5.13;;;9.40;99.90;;;;;;4975710;28;20105;-77
2023/05/26 06:25:55;;;;;;;31.25;4.55;;;9.60;99.90;;;;;;4974309;28;20459;-76
2023/05/26 06:28:21;;;;;;;26.90;4.60;;;9.60;99.90;;;;;;4974038;28;20074;-76
2023/05/26 06:30:47;;;;;;;29.23;5.32;;;9.70;99.90;;;;;;4973889;28;20050;-78
2023/05/26 06:33:13;;;;;;;27.13;4.97;;;9.80;99.90;;;;;;4976063;28;20461;-77
2023/05/26 06:35:38;;;;;;;25.73;4.25;;;9.80;99.90;;;;;;4958787;28;20423;-76
2023/05/26 06:38:04;;;;;;;32.97;4.30;;;9.90;99.90;;;;;;4974125;28;20052;-77
2023/05/26 06:40:29;;;;;;;29.00;5.80;;;10.00;99.90;;;;;;4957854;28;20047;-76
2023/05/26 06:42:55;;;;;;;32.00;4.90;;;10.10;99.90;;;;;;4974070;28;20047;-77
2023/05/26 06:45:21;;;;;;;28.65;5.07;;;10.10;99.90;;;;;;4974586;28;20043;-77
2023/05/26 06:47:47;;;;;;;22.27;3.88;;;10.20;99.90;;;;;;4974569;28;20045;-78
2023/05/26 06:50:13;;;;;;;24.80;4.35;;;10.30;99.90;;;;;;4973663;28;20035;-76
2023/05/26 06:52:39;;;;;;;28.10;4.68;;;10.40;99.90;;;;;;4975336;28;20039;-76
2023/05/26 06:55:05;;;;;;;29.85;4.45;;;10.50;99.90;;;;;;4957772;28;20430;-76
2023/05/26 06:57:30;;;;;;;28.58;4.90;;;10.60;99.90;;;;;;4973984;28;20097;-77
2023/05/26 06:59:56;;;;;;;26.77;4.50;;;10.70;99.90;;;;;;4957954;28;20047;-76
2023/05/26 07:02:22;;;;;;;24.98;5.28;;;10.80;99.90;;;;;;4976832;28;20038;-76
2023/05/26 07:04:47;;;;;;;38.88;6.32;;;10.80;99.90;;;;;;4962274;28;20046;-75
2023/05/26 07:07:13;;;;;;;22.67;3.70;;;10.90;99.90;;;;;;4980955;28;20509;-76
2023/05/26 07:09:39;;;;;;;25.80;3.78;;;11.00;99.90;;;;;;4979161;28;20097;-76
2023/05/26 07:12:06;;;;;;;30.77;5.43;;;11.10;99.90;;;;;;4977412;28;20043;-78
2023/05/26 07:14:32;;;;;;;25.75;4.07;;;11.20;99.90;;;;;;4977738;28;20054;-76
2023/05/26 07:16:57;;;;;;;29.23;5.13;;;11.30;99.90;;;;;;4977165;28;20390;-74
2023/05/26 07:19:23;;;;;;;19.35;3.72;;;11.30;99.90;;;;;;4979217;28;20137;-75
2023/05/26 07:21:49;;;;;;;34.08;4.25;;;11.40;99.90;;;;;;4978891;28;20038;-76
2023/05/26 07:24:15;;;;;;;21.33;3.65;;;11.50;99.90;;;;;;4977499;28;20122;-76
2023/05/26 07:26:40;;;;;;;21.00;3.85;;;11.60;99.90;;;;;;4977687;28;20081;-76
2023/05/26 07:29:06;;;;;;;19.70;4.15;;;11.60;99.90;;;;;;4979872;28;20078;-77
2023/05/26 07:31:32;;;;;;;28.33;4.43;;;11.60;99.90;;;;;;4979932;28;20078;-77
2023/05/26 07:33:57;;;;;;;21.75;4.22;;;11.70;99.90;;;;;;4977241;28;20538;-76
2023/05/26 07:36:23;;;;;;;33.25;5.50;;;11.80;99.90;;;;;;4978401;28;20579;-77
2023/05/26 07:38:49;;;;;;;30.42;5.03;;;11.80;99.90;;;;;;4961017;28;20043;-76
2023/05/26 07:41:14;;;;;;;21.50;3.90;;;11.90;99.90;;;;;;4961565;28;20082;-76
2023/05/26 07:43:40;;;;;;;24.75;4.78;;;11.90;99.90;;;;;;4978315;28;20559;-75
2023/05/26 07:46:05;;;;;;;16.95;3.88;;;12.00;99.90;;;;;;4977286;28;20043;-76
2023/05/26 07:48:31;;;;;;;20.67;4.00;;;12.10;99.90;;;;;;4976855;28;20043;-75
2023/05/26 07:50:57;;;;;;;34.40;4.88;;;12.10;99.90;;;;;;4976886;28;20043;-75
2023/05/26 07:53:22;;;;;;;27.80;4.78;;;12.20;99.90;;;;;;4977237;28;20042;-75
2023/05/26 07:55:48;;;;;;;38.25;5.22;;;12.30;99.90;;;;;;4960646;28;20561;-76
2023/05/26 07:58:14;;;;;;;28.45;4.10;;;12.40;99.90;;;;;;4976686;28;20072;-76
2023/05/26 08:00:40;;;;;;;19.23;3.70;;;12.50;99.90;;;;;;4989430;28;20133;-75
2023/05/26 08:03:05;;;;;;;23.88;4.18;;;12.60;99.90;;;;;;4996146;28;20486;-76
2023/05/26 08:05:31;;;;;;;17.08;4.00;;;12.80;99.90;;;;;;4995816;28;20041;-76
2023/05/26 08:07:57;;;;;;;21.35;3.60;;;12.80;99.90;;;;;;4997670;28;20027;-76
2023/05/26 08:10:24;;;;;;;22.17;4.28;;;12.90;99.90;;;;;;4995905;28;20050;-76
2023/05/26 08:12:51;;;;;;;20.23;3.28;;;13.00;99.90;;;;;;4996538;28;20479;-76
2023/05/26 08:15:17;;;;;;;22.85;3.72;;;13.10;99.90;;;;;;4996251;28;20434;-75
2023/05/26 08:17:43;;;;;;;20.88;4.05;;;13.20;99.90;;;;;;4997376;28;20038;-74
2023/05/26 08:20:10;;;;;;;18.33;3.80;;;13.30;99.90;;;;;;4979527;28;20081;-76
2023/05/26 08:22:36;;;;;;;25.42;4.10;;;13.40;99.90;;;;;;4995589;28;20042;-76
2023/05/26 08:25:02;;;;;;;14.55;2.83;;;13.50;99.90;;;;;;4995658;28;20042;-75
2023/05/26 08:27:27;;;;;;;20.30;3.53;;;13.60;99.90;;;;;;4996087;28;20100;-75
2023/05/26 08:29:53;;;;;;;16.48;3.20;;;13.60;99.90;;;;;;4996735;28;20418;-74
2023/05/26 08:32:19;;;;;;;18.10;3.30;;;13.70;99.90;;;;;;4996610;28;20038;-75
2023/05/26 08:34:44;;;;;;;18.33;3.08;;;13.70;99.90;;;;;;4995859;28;20042;-76
2023/05/26 08:37:11;;;;;;;15.48;3.00;;;13.80;99.90;;;;;;4995430;28;20151;-76
2023/05/26 08:39:38;;;;;;;15.77;3.00;;;13.80;99.90;;;;;;4996707;28;20065;-76
2023/05/26 08:42:06;;;;;;;14.68;3.35;;;13.90;99.90;;;;;;4995065;28;20047;-74
2023/05/26 08:44:36;;;;;;;15.80;3.13;;;14.00;99.90;;;;;;4995337;28;20046;-77
2023/05/26 08:47:03;;;;;;;21.63;4.47;;;14.10;99.90;;;;;;4995461;28;20053;-74
2023/05/26 08:49:38;;;;;;;15.07;3.25;;;14.30;99.90;;;;;;4995110;28;20042;-75
2023/05/26 08:52:10;;;;;;;15.68;3.35;;;14.40;99.90;;;;;;4995163;28;20516;-75
2023/05/26 08:54:36;;;;;;;15.40;2.88;;;14.50;99.90;;;;;;4995101;28;20125;-75
2023/05/26 08:57:03;;;;;;;16.83;3.17;;;14.60;99.90;;;;;;4996622;28;20075;-76
2023/05/26 08:59:29;;;;;;;14.05;2.45;;;14.70;99.90;;;;;;4995735;28;20478;-76
2023/05/26 09:01:58;;;;;;;15.82;3.10;;;14.80;99.90;;;;;;4995192;28;20047;-74
2023/05/26 09:04:29;;;;;;;13.88;2.75;;;14.90;99.90;;;;;;4995167;28;20057;-76
2023/05/26 09:06:55;;;;;;;17.42;2.83;;;15.00;99.90;;;;;;4979305;28;20050;-76
2023/05/26 09:09:21;;;;;;;15.65;2.88;;;15.00;99.90;;;;;;4996250;28;20049;-75
2023/05/26 09:11:46;;;;;;;16.23;3.35;;;15.10;99.90;;;;;;4995401;28;20097;-73
2023/05/26 09:14:16;;;;;;;13.60;3.58;;;15.30;99.90;;;;;;4978755;28;20046;-76
2023/05/26 09:16:43;;;;;;;16.85;3.15;;;15.40;99.90;;;;;;4995099;28;20046;-74
2023/05/26 09:19:14;;;;;;;12.23;2.75;;;15.50;99.90;;;;;;4995029;28;20129;-73
2023/05/26 09:21:46;;;;;;;14.35;3.33;;;15.70;99.90;;;;;;4995370;28;20078;-75
2023/05/26 09:24:18;;;;;;;21.70;3.63;;;15.80;99.90;;;;;;4994998;28;20050;-76
2023/05/26 09:26:45;;;;;;;16.25;3.67;;;15.90;99.90;;;;;;4994655;28;20042;-74
2023/05/26 09:29:12;;;;;;;20.45;3.72;;;16.00;99.90;;;;;;4994605;28;20042;-73
2023/05/26 09:31:40;;;;;;;14.10;3.40;;;16.10;99.90;;;;;;4995781;28;20038;-77
2023/05/26 09:34:06;;;;;;;13.00;2.88;;;16.20;99.90;;;;;;4992763;28;20038;-75
2023/05/26 09:36:36;;;;;;;16.17;2.90;;;16.30;99.90;;;;;;4996023;28;20070;-77
2023/05/26 09:39:03;;;;;;;10.38;2.70;;;16.50;99.90;;;;;;4994572;28;20046;-75
2023/05/26 09:41:43;;;;;;;18.08;3.45;;;16.60;99.90;;;;;;4994825;28;20046;-74
2023/05/26 09:44:17;;;;;;;14.82;3.30;;;16.60;99.90;;;;;;4995751;28;20042;-74
2023/05/26 09:46:44;;;;;;;14.88;3.35;;;16.60;99.90;;;;;;4994593;28;20050;-74
2023/05/26 09:49:19;;;;;;;18.23;3.25;;;16.60;99.90;;;;;;4995296;28;20043;-74
2023/05/26 09:51:48;;;;;;;16.80;3.65;;;16.60;99.90;;;;;;4995385;28;20048;-74
2023/05/26 09:54:14;;;;;;;18.35;3.50;;;16.70;99.90;;;;;;4994318;28;20049;-75
2023/05/26 09:56:42;;;;;;;14.10;3.15;;;16.70;99.90;;;;;;4994351;28;20043;-73
2023/05/26 09:59:10;;;;;;;14.88;3.03;;;16.80;99.90;;;;;;4994585;28;20050;-75
2023/05/26 10:01:38;;;;;;;16.35;3.10;;;16.90;99.90;;;;;;4994035;28;20137;-76
2023/05/26 10:04:06;;;;;;;16.10;3.47;;;17.00;99.90;;;;;;4994364;28;20038;-74
2023/05/26 10:06:35;;;;;;;11.27;2.90;;;17.10;99.90;;;;;;4994304;28;20546;-74
2023/05/26 10:09:02;;;;;;;14.57;3.10;;;17.20;99.90;;;;;;4993884;28;20069;-74
2023/05/26 10:11:29;;;;;;;14.55;3.45;;;17.30;99.90;;;;;;4994263;28;20038;-75
2023/05/26 10:13:56;;;;;;;13.38;3.15;;;17.40;99.90;;;;;;4996379;28;20046;-76
2023/05/26 10:16:22;;;;;;;14.23;3.20;;;17.50;99.90;;;;;;4994553;28;20042;-75
2023/05/26 10:18:49;;;;;;;16.45;3.35;;;17.70;99.90;;;;;;4993787;28;20038;-75
2023/05/26 10:21:17;;;;;;;15.48;3.45;;;17.80;99.90;;;;;;4995239;28;20042;-74
2023/05/26 10:24:22;;;;;;;17.42;2.80;;;17.90;99.90;;;;;;4995118;28;20034;-75
2023/05/26 10:27:00;;;;;;;11.90;2.80;;;17.90;99.90;;;;;;4995490;28;20030;-76
2023/05/26 10:29:36;;;;;;;15.25;2.95;;;17.90;99.90;;;;;;4995006;28;20047;-74
2023/05/26 10:32:03;;;;;;;15.25;3.20;;;17.90;99.90;;;;;;4993760;28;20042;-75
2023/05/26 10:34:45;;;;;;;16.55;3.28;;;17.90;99.90;;;;;;4993932;28;20042;-76
2023/05/26 10:37:17;;;;;;;12.20;2.60;;;18.00;99.90;;;;;;4993100;28;20045;-74
2023/05/26 10:39:43;;;;;;;14.55;3.10;;;18.10;99.90;;;;;;4977183;28;20042;-74
2023/05/26 10:42:17;;;;;;;15.93;3.03;;;18.20;99.90;;;;;;4993454;28;20125;-74
2023/05/26 10:44:52;;;;;;;10.20;3.28;;;18.30;99.90;;;;;;4977006;28;20049;-73
2023/05/26 10:47:19;;;;;;;13.80;2.60;;;18.50;99.90;;;;;;4995033;28;20049;-77
2023/05/26 10:49:58;;;;;;;17.17;3.22;;;18.50;99.90;;;;;;4995536;28;20100;-75
2023/05/26 10:52:26;;;;;;;14.88;3.63;;;18.50;99.90;;;;;;4994836;28;20042;-75
2023/05/26 10:54:52;;;;;;;15.50;3.30;;;18.60;99.90;;;;;;4993808;28;20392;-74
2023/05/26 10:57:31;;;;;;;10.05;2.88;;;18.60;99.90;;;;;;4994890;28;20034;-74
2023/05/26 10:59:58;;;;;;;15.43;3.28;;;18.70;99.90;;;;;;4994673;28;20092;-76
2023/05/26 11:02:24;;;;;;;10.93;3.15;;;18.80;99.90;;;;;;4994205;28;20132;-74
2023/05/26 11:04:50;;;;;;;13.82;3.78;;;19.00;99.90;;;;;;4992993;28;20038;-77
2023/05/26 11:07:27;;;;;;;13.20;3.65;;;19.10;99.90;;;;;;4993308;28;20049;-74
2023/05/26 11:10:07;;;;;;;17.75;4.20;;;19.20;99.90;;;;;;4993228;28;20076;-76
2023/05/26 11:12:48;;;;;;;16.55;3.60;;;19.40;99.90;;;;;;4993394;28;20050;-73
2023/05/26 11:15:30;;;;;;;14.25;3.67;;;19.30;99.90;;;;;;4994777;28;20042;-75
2023/05/26 11:18:09;;;;;;;13.45;3.58;;;19.30;99.50;;;;;;4994904;28;20094;-76
2023/05/26 11:20:35;;;;;;;18.48;4.05;;;19.30;99.60;;;;;;4976708;28;20054;-73
2023/05/26 11:23:01;;;;;;;14.20;3.60;;;19.30;99.90;;;;;;4994615;28;20069;-76
2023/05/26 11:25:27;;;;;;;17.83;4.15;;;19.40;99.80;;;;;;4993241;28;20116;-75
2023/05/26 11:27:53;;;;;;;17.60;3.92;;;19.50;99.50;;;;;;4993741;28;20561;-75
2023/05/26 11:30:19;;;;;;;16.35;3.28;;;19.60;98.90;;;;;;4992835;28;20050;-76
2023/05/26 11:32:50;;;;;;;10.65;2.85;;;19.60;98.70;;;;;;4993142;28;20046;-75
2023/05/26 11:35:27;;;;;;;16.80;3.78;;;19.70;98.80;;;;;;4993303;28;20043;-75
2023/05/26 11:37:54;;;;;;;15.95;3.90;;;19.70;97.80;;;;;;4977656;28;20074;-76
2023/05/26 11:40:20;;;;;;;16.23;3.80;;;19.60;97.60;;;;;;4976966;28;20105;-75
2023/05/26 11:42:52;;;;;;;14.57;3.72;;;19.70;97.70;;;;;;4993277;28;20046;-75
2023/05/26 11:45:18;;;;;;;15.77;3.63;;;19.70;97.40;;;;;;4993955;28;20113;-74
2023/05/26 11:47:44;;;;;;;14.30;3.28;;;19.80;97.50;;;;;;4994261;28;20046;-76
2023/05/26 11:50:11;;;;;;;18.23;3.72;;;19.90;97.60;;;;;;4997883;28;20038;-76
2023/05/26 11:52:48;;;;;;;14.80;3.30;;;20.00;97.40;;;;;;4996111;28;20041;-76
2023/05/26 11:55:15;;;;;;;15.93;3.60;;;20.10;96.60;;;;;;4996470;28;20053;-74
2023/05/26 11:57:44;;;;;;;14.00;3.10;;;20.20;96.30;;;;;;4979888;28;20051;-75
2023/05/26 12:00:15;;;;;;;13.93;3.53;;;20.20;96.00;;;;;;4996215;28;20050;-75
2023/05/26 12:02:40;;;;;;;16.38;3.63;;;20.20;95.40;;;;;;4996378;28;20100;-73
2023/05/26 12:05:29;;;;;;;14.75;4.00;;;20.20;95.20;;;;;;4996434;28;20042;-76
2023/05/26 12:08:21;;;;;;;15.27;3.47;;;20.20;95.10;;;;;;4996700;28;20462;-77
2023/05/26 12:10:46;;;;;;;13.48;3.42;;;20.30;95.70;;;;;;4994338;28;20050;-76
2023/05/26 12:13:12;;;;;;;15.75;3.72;;;20.30;95.40;;;;;;4996077;28;20047;-74
2023/05/26 12:15:37;;;;;;;9.20;2.90;;;20.40;95.10;;;;;;4995998;28;20042;-76
2023/05/26 12:18:03;;;;;;;15.07;3.42;;;20.40;94.40;;;;;;4996356;28;20042;-74
2023/05/26 12:20:30;;;;;;;16.00;3.75;;;20.50;94.00;;;;;;4996422;28;20546;-76
2023/05/26 12:23:01;;;;;;;12.45;3.30;;;20.70;93.90;;;;;;4996337;28;20034;-76
2023/05/26 12:25:29;;;;;;;18.80;4.18;;;20.70;93.70;;;;;;4996350;28;20049;-77
2023/05/26 12:27:55;;;;;;;21.67;4.47;;;20.80;93.20;;;;;;4996367;28;20178;-74
2023/05/26 12:30:36;;;;;;;12.70;3.25;;;20.70;92.70;;;;;;4995873;28;20050;-76
2023/05/26 12:33:01;;;;;;;12.93;3.50;;;20.70;92.40;;;;;;4995870;28;20042;-75
2023/05/26 12:35:27;;;;;;;13.88;3.80;;;20.70;92.60;;;;;;4996225;28;20038;-73
2023/05/26 12:37:53;;;;;;;15.02;4.00;;;20.80;92.40;;;;;;4996817;28;20421;-75
2023/05/26 12:40:18;;;;;;;18.25;3.83;;;20.80;92.10;;;;;;4995660;28;20503;-75
2023/05/26 12:42:44;;;;;;;15.50;3.50;;;20.70;91.80;;;;;;4995609;28;20042;-76
2023/05/26 12:45:10;;;;;;;16.75;3.63;;;20.70;91.80;;;;;;4995616;28;20050;-76
2023/05/26 12:47:35;;;;;;;14.70;3.97;;;20.70;91.80;;;;;;4995566;28;20109;-77
2023/05/26 12:50:03;;;;;;;14.40;3.70;;;20.70;91.90;;;;;;4997005;28;20117;-73
2023/05/26 12:52:29;;;;;;;16.85;3.72;;;20.80;92.20;;;;;;4995510;28;20046;-76
2023/05/26 12:54:55;;;;;;;10.07;3.20;;;20.90;91.60;;;;;;4995541;28;20126;-75
2023/05/26 12:57:21;;;;;;;12.65;4.00;;;20.90;91.20;;;;;;4995355;28;20042;-76
2023/05/26 12:59:46;;;;;;;18.58;4.32;;;20.90;90.80;;;;;;4995194;28;20116;-75
2023/05/26 13:02:12;;;;;;;15.48;4.10;;;20.90;91.00;;;;;;4995246;28;20042;-77
2023/05/26 13:04:38;;;;;;;12.95;3.60;;;20.90;90.90;;;;;;4997023;28;20509;-75
2023/05/26 13:07:04;;;;;;;13.40;3.25;;;20.90;90.90;;;;;;4995639;28;20042;-76
2023/05/26 13:09:30;;;;;;;15.80;3.70;;;20.90;90.80;;;;;;4995250;28;20050;-74
2023/05/26 13:11:57;;;;;;;15.95;3.28;;;21.00;91.10;;;;;;4979206;28;20086;-75
2023/05/26 13:14:23;;;;;;;13.30;3.33;;;21.00;90.70;;;;;;4996224;28;20466;-74
2023/05/26 13:16:48;;;;;;;14.77;3.20;;;21.00;90.30;;;;;;4979069;28;20038;-73
2023/05/26 13:19:16;;;;;;;13.05;3.50;;;21.00;90.00;;;;;;4995463;28;20185;-74
2023/05/26 13:21:42;;;;;;;17.42;4.15;;;20.90;88.70;;;;;;4995358;28;20054;-76
2023/05/26 13:24:07;;;;;;;13.80;3.47;;;20.90;90.10;;;;;;4994994;28;20205;-74
2023/05/26 13:26:33;;;;;;;15.30;3.72;;;21.00;90.00;;;;;;4995073;28;20050;-75
2023/05/26 13:28:59;;;;;;;15.40;3.63;;;21.10;90.10;;;;;;4994680;28;20120;-75
2023/05/26 13:31:24;;;;;;;16.42;3.58;;;21.00;90.20;;;;;;4994784;28;20050;-76
2023/05/26 13:33:51;;;;;;;14.13;3.65;;;21.10;90.30;;;;;;4995164;28;20038;-76
2023/05/26 13:36:17;;;;;;;12.15;3.53;;;21.10;90.00;;;;;;4994835;28;20096;-73
2023/05/26 13:38:43;;;;;;;19.45;3.80;;;21.10;90.00;;;;;;4995368;28;20470;-76
2023/05/26 13:41:11;;;;;;;19.60;4.30;;;21.00;89.80;;;;;;4993934;28;20035;-76
2023/05/26 13:43:37;;;;;;;16.30;3.97;;;20.80;90.00;;;;;;4994378;28;20042;-76
2023/05/26 13:46:02;;;;;;;16.42;3.83;;;20.70;90.00;;;;;;4994313;28;20155;-75
2023/05/26 13:48:28;;;;;;;14.82;3.60;;;20.50;89.00;;;;;;4995663;28;20065;-74
2023/05/26 13:50:54;;;;;;;19.60;4.28;;;20.60;89.00;;;;;;4994358;28;20061;-74
2023/05/26 13:53:21;;;;;;;14.05;3.33;;;20.70;89.60;;;;;;4994480;28;20505;-75
2023/05/26 13:55:47;;;;;;;14.35;3.38;;;20.80;89.20;;;;;;4996043;28;20449;-75
2023/05/26 13:58:13;;;;;;;17.50;3.58;;;20.70;89.00;;;;;;4994301;28;20137;-78
2023/05/26 14:00:39;;;;;;;16.45;3.80;;;20.80;89.70;;;;;;4994164;28;20125;-74
2023/05/26 14:03:05;;;;;;;14.40;3.47;;;20.80;90.00;;;;;;4995048;28;20129;-74
2023/05/26 14:05:31;;;;;;;15.57;4.00;;;20.80;90.00;;;;;;4978009;28;20050;-77
2023/05/26 14:08:02;;;;;;;15.15;3.50;;;20.80;90.10;;;;;;4994382;28;20093;-75
2023/05/26 14:10:30;;;;;;;17.55;4.15;;;20.80;90.30;;;;;;4994532;28;20386;-75
2023/05/26 14:12:56;;;;;;;19.98;3.75;;;20.90;90.50;;;;;;4977568;28;20556;-74
2023/05/26 14:15:21;;;;;;;14.82;3.42;;;20.70;90.10;;;;;;4995576;28;20038;-74
2023/05/26 14:17:48;;;;;;;15.82;3.50;;;20.80;90.10;;;;;;4995576;28;20046;-75
2023/05/26 14:20:14;;;;;;;17.48;3.78;;;20.90;90.00;;;;;;4994506;28;20124;-75
2023/05/26 14:22:40;;;;;;;10.80;3.38;;;20.80;90.20;;;;;;4994521;28;20473;-74
2023/05/26 14:25:06;;;;;;;13.77;3.38;;;20.60;90.20;;;;;;4994527;28;20049;-73
2023/05/26 14:27:32;;;;;;;19.30;3.75;;;20.60;89.60;;;;;;4995404;28;20065;-74
2023/05/26 14:29:58;;;;;;;12.40;3.45;;;20.70;89.40;;;;;;4994315;28;20506;-72
2023/05/26 14:32:25;;;;;;;14.90;3.38;;;20.80;89.90;;;;;;4994104;28;20561;-74
2023/05/26 14:34:52;;;;;;;16.67;3.40;;;20.90;89.60;;;;;;4977680;28;20150;-75
2023/05/26 14:37:17;;;;;;;18.85;3.80;;;20.70;89.60;;;;;;4993577;28;20043;-77
2023/05/26 14:39:43;;;;;;;12.68;3.63;;;20.60;89.00;;;;;;4993734;28;20045;-76
2023/05/26 14:42:09;;;;;;;14.35;4.10;;;20.50;89.50;;;;;;4977369;28;20108;-76
2023/05/26 14:44:34;;;;;;;19.48;3.58;;;20.60;88.80;;;;;;4993749;28;20034;-77
2023/05/26 14:47:00;;;;;;;15.27;3.70;;;20.50;89.00;;;;;;4995117;28;20046;-75
2023/05/26 14:49:26;;;;;;;15.45;3.45;;;20.40;89.00;;;;;;4994880;28;20038;-74
2023/05/26 14:51:52;;;;;;;15.75;3.38;;;20.20;89.00;;;;;;4993603;28;20061;-73
2023/05/26 14:54:18;;;;;;;11.43;2.95;;;19.90;88.70;;;;;;4993401;28;20038;-73
2023/05/26 14:56:44;;;;;;;15.60;3.70;;;19.80;89.40;;;;;;4993904;28;20081;-77
2023/05/26 14:59:10;;;;;;;16.75;3.30;;;19.60;89.80;;;;;;4994805;28;20038;-75
2023/05/26 15:01:35;;;;;;;18.70;3.55;;;19.40;89.60;;;;;;4993623;28;20065;-77
2023/05/26 15:04:01;;;;;;;16.60;3.88;;;19.30;89.80;;;;;;4993608;28;20483;-78
2023/05/26 15:06:30;;;;;;;13.57;4.05;;;19.40;90.20;;;;;;4994759;28;20125;-74
2023/05/26 15:08:56;;;;;;;13.20;3.60;;;19.50;89.80;;;;;;4993033;28;20572;-76
2023/05/26 15:11:22;;;;;;;14.23;3.53;;;19.60;89.80;;;;;;4993544;28;20042;-76
2023/05/26 15:13:47;;;;;;;12.65;3.25;;;19.80;90.10;;;;;;4993419;28;20394;-74
2023/05/26 15:16:13;;;;;;;11.98;3.00;;;20.00;90.60;;;;;;4993456;28;20042;-76
2023/05/26 15:18:39;;;;;;;10.93;3.47;;;20.10;90.50;;;;;;4993716;28;20494;-74
2023/05/26 15:21:05;;;;;;;14.15;3.72;;;20.20;90.50;;;;;;4993001;28;20129;-76
2023/05/26 15:23:31;;;;;;;13.20;3.40;;;20.30;90.40;;;;;;4993933;28;20057;-75
2023/05/26 15:25:58;;;;;;;13.70;3.55;;;20.50;90.10;;;;;;4997107;28;20066;-75
2023/05/26 15:28:27;;;;;;;12.98;3.20;;;20.50;89.40;;;;;;4997121;28;20120;-77
2023/05/26 15:30:53;;;;;;;10.45;3.47;;;20.60;89.40;;;;;;4980795;28;20449;-77
2023/05/26 15:33:21;;;;;;;15.32;4.00;;;20.60;89.20;;;;;;4996801;28;20129;-75
2023/05/26 15:35:47;;;;;;;15.43;3.58;;;20.50;89.50;;;;;;4996896;28;20053;-75
2023/05/26 15:38:12;;;;;;;12.85;3.28;;;20.10;89.70;;;;;;4997040;28;20121;-73
2023/05/26 15:40:38;;;;;;;15.93;3.20;;;19.90;90.10;;;;;;4996971;28;20126;-75